ミッドウェー島 の空港の天気 - METARとTAF

ヘンダーソン基地 ( PMDY / MDY ) - 合衆国領有小離島 ミッドウェー島
飛行場実況気象(Metar)
観測時間09/18 11:56 SST (09/18 22:56 UTC)
風向・風速南東 7m/s 瞬間風速10m/s
視程8050m
天気現象煙霧
全天の4割程度の雲 雲底高度 550m
気温26.1℃
湿度79%
気圧1019.8hPa
METARPMDY 182256Z AUTO 14014G19KT 5SM HZ SCT018 26/22 A3012 RMK AO2 SLP198 T02610222
過去の天気等 Google飛行場航空写真 Wunderground天気予報

過去48時間のMETAR

飛行場予報(TAF)
発表時間: 9/18 12:20 SST (9/18 23:20 UTC)
予報対象時間: 18日13時 SST ~ 19日13時 SST
風向・風速南東 6m/s 瞬間風速 8m/s
視程10km以上
天気現象周辺でしゅう雨
全天の4割程度の雲 雲底高度 460m
全天の8割程度の雲 雲底高度 1220m
PMDY 182320Z 1900/1924 14011G16KT P6SM VCSH SCT015 BKN040